Thursday, August 25, 2016, 11:09 PM EDT

KPTW, Pottstown Limerick Airport

Location: Royersford, PA, United States Lat: 40.233
Local Time: 11:09 PM EDT ( 3:09 GMT) Lon: -75.55
Time Zone: US/Eastern Elev: 291 ft

Show me the last for .
Show Decoded

2016-08-25 22:54 METAR KPTW 260254Z AUTO 00000KT 9SM CLR 24/22 A3004 RMK AO2 SLP166 T02440217
                 58001 =
2016-08-25 21:54 METAR KPTW 260154Z AUTO 00000KT 9SM CLR 25/22 A3004 RMK AO2 SLP167 T02500222 =
2016-08-25 20:54 METAR KPTW 260054Z AUTO 00000KT 9SM CLR 25/22 A3004 RMK AO2 SLP169 T02500222 =
2016-08-25 19:54 METAR KPTW 252354Z AUTO 18003KT 9SM FEW030 26/22 A3004 RMK AO2 SLP167 T02610217
                 10283 20261 55001 =
2016-08-25 18:54 METAR KPTW 252254Z AUTO 19005KT 9SM FEW029 27/22 A3003 RMK AO2 SLP165 T02720217
                 =
2016-08-25 17:54 METAR KPTW 252154Z AUTO 22006KT 9SM OVC031 27/22 A3004 RMK AO2 SLP167 T02720217
                 =
2016-08-25 16:54 METAR KPTW 252054Z AUTO 21008KT 9SM BKN030 BKN036 BKN110 28/21 A3004 RMK AO2
                 SLP167 T02780211 57009 =
2016-08-25 15:54 METAR KPTW 251954Z AUTO 21007G14KT 9SM FEW028 BKN035 BKN070 28/22 A3005 RMK AO2
                 SLP171 T02780217 =
2016-08-25 14:54 METAR KPTW 251854Z AUTO 19006KT 9SM BKN033 BKN047 OVC065 27/22 A3006 RMK AO2
                 SLP173 T02720217 =
2016-08-25 14:45 METAR KPTW 251845Z AUTO 21006KT 9SM SCT028 BKN033 OVC046 27/22 A3006 RMK AO2
                 T02720217 =
2016-08-25 14:23 METAR KPTW 251823Z AUTO 18009KT 9SM BKN027 OVC047 27/21 A3006 RMK AO2 T02720211
                 =
2016-08-25 13:54 METAR KPTW 251754Z AUTO 21006KT 9SM FEW027 BKN046 OVC070 28/21 A3007 RMK AO2
                 SLP177 T02780211 10278 20200 56015 =
2016-08-25 12:54 METAR KPTW 251654Z AUTO 20005KT 9SM FEW027 BKN060 OVC085 27/21 A3008 RMK AO2
                 SLP182 T02720211 =
2016-08-25 11:54 METAR KPTW 251554Z AUTO 19006KT 10SM CLR 27/21 A3009 RMK AO2 SLP186 T02720206 =
2016-08-25 10:54 METAR KPTW 251454Z AUTO 20006KT 10SM CLR 26/20 A3011 RMK AO2 SLP192 T02560200
                 58009 =
2016-08-25 09:54 METAR KPTW 251354Z AUTO 19008KT 10SM CLR 24/19 A3012 RMK AO2 SLP195 T02440194 =
2016-08-25 08:54 METAR KPTW 251254Z AUTO VRB04KT 10SM CLR 22/19 A3013 RMK AO2 SLP199 T02220189 =
2016-08-25 07:54 METAR KPTW 251154Z AUTO VRB03KT 10SM CLR 20/18 A3014 RMK AO2 RAE00 SLP201 P0000
                 60000 T02000178 10206 20178 50001 =
2016-08-25 06:54 METAR KPTW 251054Z AUTO 00000KT 9SM -RA CLR 19/17 A3015 RMK AO2 RAB51 SLP204
                 P0000 T01890172 =
2016-08-25 05:54 METAR KPTW 250954Z AUTO 19003KT 10SM CLR 18/17 A3014 RMK AO2 SLP201 T01830172 =
2016-08-25 04:54 METAR KPTW 250854Z AUTO 00000KT 10SM SCT045 19/17 A3014 RMK AO2 SLP200 T01890172
                 58014 =
2016-08-25 03:54 METAR KPTW 250754Z AUTO VRB03KT 10SM BKN045 19/17 A3015 RMK AO2 SLP206 T01940167
                 =
2016-08-25 02:54 METAR KPTW 250654Z AUTO 00000KT 10SM CLR 19/17 A3017 RMK AO2 SLP210 T01890167 =
2016-08-25 01:54 METAR KPTW 250554Z AUTO 00000KT 10SM CLR 19/17 A3018 RMK AO2 SLP214 T01940167
                 10250 20178 56011 =
2016-08-25 00:54 METAR KPTW 250454Z AUTO 00000KT 10SM CLR 19/17 A3019 RMK AO2 SLP217 T01940172
                 402890139 =
2016-08-24 23:54 METAR KPTW 250354Z AUTO 00000KT 10SM CLR 19/17 A3020 RMK AO2 SLP221 T01890172 =

Support USWX by starting your Amazon purchase here.